createdAt,value
2017-08-15T00:02:25.019Z,7.70
2017-08-15T00:04:53.345Z,6.90
2017-08-15T00:07:20.867Z,8.63
2017-08-15T00:09:48.418Z,7.93
2017-08-15T00:12:16.707Z,7.07
2017-08-15T00:14:44.254Z,7.10
2017-08-15T00:17:12.547Z,6.23
2017-08-15T00:19:40.099Z,7.93
2017-08-15T00:22:07.633Z,8.33
2017-08-15T00:24:35.182Z,8.17
2017-08-15T00:27:02.706Z,7.57
2017-08-15T00:29:30.263Z,6.80
2017-08-15T00:31:57.794Z,8.73
2017-08-15T00:34:25.351Z,8.00
2017-08-15T00:36:52.882Z,7.77
2017-08-15T00:39:20.430Z,8.93
2017-08-15T00:41:47.959Z,10.00
2017-08-15T00:44:15.503Z,8.60
2017-08-15T00:46:43.040Z,7.43
2017-08-15T00:49:11.339Z,8.00
2017-08-15T00:51:38.890Z,5.90
2017-08-15T00:54:06.412Z,7.03
2017-08-15T00:56:33.954Z,6.30
2017-08-15T00:59:01.488Z,7.53
2017-08-15T01:01:29.039Z,6.17
2017-08-15T01:03:56.562Z,8.77
2017-08-15T01:06:24.113Z,6.37
2017-08-15T01:08:51.630Z,7.33
2017-08-15T01:11:19.192Z,6.60
2017-08-15T01:13:46.721Z,6.83
2017-08-15T01:16:14.272Z,8.43
2017-08-15T01:18:42.566Z,7.80
2017-08-15T01:21:10.119Z,7.07
2017-08-15T01:23:37.642Z,8.10
2017-08-15T01:26:05.190Z,7.67
2017-08-15T01:28:32.718Z,7.97
2017-08-15T01:31:00.263Z,8.33
2017-08-15T01:33:27.790Z,7.20
2017-08-15T01:35:55.398Z,13.43
2017-08-15T01:38:22.909Z,6.73
2017-08-15T01:40:50.462Z,6.90
2017-08-15T01:43:17.990Z,7.00
2017-08-15T01:45:45.510Z,7.07
2017-08-15T01:48:13.063Z,9.30
2017-08-15T01:50:41.354Z,8.07
2017-08-15T01:53:08.902Z,7.70
2017-08-15T01:55:37.191Z,8.27
2017-08-15T01:58:04.730Z,8.70
2017-08-15T02:00:33.029Z,11.83
2017-08-15T02:03:00.582Z,9.63
2017-08-15T02:05:28.114Z,9.97
2017-08-15T02:07:55.666Z,11.07
2017-08-15T02:10:23.207Z,14.07
2017-08-15T02:12:50.750Z,10.13
2017-08-15T02:15:18.274Z,10.40
2017-08-15T02:17:45.824Z,11.57
2017-08-15T02:20:14.131Z,9.83
2017-08-15T02:22:41.686Z,12.27
2017-08-15T02:25:09.215Z,10.20
2017-08-15T02:27:37.535Z,11.70
2017-08-15T02:30:05.063Z,11.37
2017-08-15T02:32:33.378Z,13.40
2017-08-15T02:35:00.906Z,10.70
2017-08-15T02:37:28.474Z,17.37
2017-08-15T02:39:56.025Z,12.03
2017-08-15T02:42:24.308Z,11.63
2017-08-15T02:44:51.868Z,14.27
2017-08-15T02:47:19.402Z,11.87
2017-08-15T02:49:46.952Z,12.27
2017-08-15T02:52:14.482Z,10.60
2017-08-15T02:54:42.034Z,10.03
2017-08-15T02:57:09.571Z,12.87
2017-08-15T02:59:37.128Z,12.10
2017-08-15T03:02:04.664Z,12.13
2017-08-15T03:04:32.990Z,11.07
2017-08-15T03:07:00.524Z,12.80
2017-08-15T03:09:28.090Z,11.20
2017-08-15T03:11:55.627Z,14.40
2017-08-15T03:14:23.174Z,11.93
2017-08-15T03:16:51.470Z,11.23
2017-08-15T03:19:19.787Z,13.70
2017-08-15T03:21:47.323Z,10.60
2017-08-15T03:24:14.882Z,13.33
2017-08-15T03:26:42.418Z,10.50
2017-08-15T03:29:10.732Z,9.83
2017-08-15T03:31:38.262Z,10.10
2017-08-15T03:34:05.793Z,13.53
2017-08-15T03:36:33.363Z,11.40
2017-08-15T03:39:01.660Z,10.53
2017-08-15T03:41:29.222Z,14.80
2017-08-15T03:43:56.763Z,14.10
2017-08-15T03:46:25.078Z,10.30
2017-08-15T03:48:52.611Z,13.93
2017-08-15T03:51:20.939Z,11.10
2017-08-15T03:53:48.461Z,13.20
2017-08-15T03:56:16.026Z,12.30
2017-08-15T03:58:43.555Z,12.77
2017-08-15T04:01:11.876Z,14.27
2017-08-15T04:03:39.413Z,12.57
2017-08-15T04:06:07.007Z,11.80
2017-08-15T04:08:34.536Z,11.17
2017-08-15T04:11:02.096Z,10.23
2017-08-15T04:13:29.641Z,14.47
2017-08-15T04:15:57.974Z,12.83
2017-08-15T04:18:25.511Z,14.07
2017-08-15T04:20:53.085Z,16.07
2017-08-15T04:23:20.630Z,12.47
2017-08-15T04:25:48.202Z,11.40
2017-08-15T04:28:15.746Z,15.30
2017-08-15T04:30:43.271Z,11.17
2017-08-15T04:33:11.591Z,15.50
2017-08-15T04:35:39.127Z,10.27
2017-08-15T04:38:06.694Z,10.90
2017-08-15T04:40:34.229Z,11.17
2017-08-15T04:43:02.550Z,9.23
2017-08-15T04:45:30.076Z,10.77
2017-08-15T04:47:58.421Z,9.27
2017-08-15T04:50:25.962Z,11.00
2017-08-15T04:52:53.515Z,10.17
2017-08-15T04:55:21.050Z,11.53
2017-08-15T04:57:48.627Z,11.30
2017-08-15T05:00:16.174Z,11.10
2017-08-15T05:02:43.721Z,11.13
2017-08-15T05:05:11.265Z,13.33
2017-08-15T05:07:38.827Z,10.60
2017-08-15T05:10:07.127Z,9.63
2017-08-15T05:12:34.686Z,10.63
2017-08-15T05:15:02.222Z,15.07
2017-08-15T05:17:30.543Z,19.13
2017-08-15T05:19:58.090Z,21.13
2017-08-15T05:22:25.641Z,12.70
2017-08-15T05:24:53.193Z,13.07
2017-08-15T05:27:20.735Z,11.83
2017-08-15T05:29:49.065Z,11.80
2017-08-15T05:32:16.615Z,12.23
2017-08-15T05:34:44.174Z,11.70
2017-08-15T05:37:12.244Z,18.83
2017-08-15T05:39:39.806Z,12.53
2017-08-15T05:42:07.328Z,12.60
2017-08-15T05:44:35.648Z,12.13
2017-08-15T05:47:03.181Z,11.10
2017-08-15T05:49:30.745Z,9.80
2017-08-15T05:51:58.294Z,12.40
2017-08-15T05:54:25.843Z,10.40
2017-08-15T05:56:54.142Z,8.97
2017-08-15T05:59:21.687Z,10.70
2017-08-15T06:01:49.980Z,8.80
2017-08-15T06:04:17.542Z,9.97
2017-08-15T06:06:45.061Z,8.80
2017-08-15T06:09:12.607Z,9.80
2017-08-15T06:11:40.130Z,10.37
2017-08-15T06:14:07.674Z,8.20
2017-08-15T06:16:35.205Z,11.47
2017-08-15T06:19:03.522Z,9.90
2017-08-15T06:21:31.046Z,9.80
2017-08-15T06:23:59.343Z,10.93
2017-08-15T06:26:26.891Z,9.57
2017-08-15T06:28:55.181Z,9.30
2017-08-15T06:31:22.746Z,7.67
2017-08-15T06:33:50.278Z,7.90
2017-08-15T06:36:18.618Z,7.37
2017-08-15T06:38:46.146Z,8.57
2017-08-15T06:41:13.699Z,6.40
2017-08-15T06:43:41.227Z,8.80
2017-08-15T06:46:08.775Z,6.03
2017-08-15T06:48:36.310Z,7.73
2017-08-15T06:51:03.876Z,6.40
2017-08-15T06:53:31.406Z,8.27
2017-08-15T06:55:58.959Z,6.70
2017-08-15T06:58:26.487Z,6.93
2017-08-15T07:00:54.814Z,7.90
2017-08-15T07:03:22.356Z,9.93
2017-08-15T07:05:49.913Z,6.33
2017-08-15T07:08:17.446Z,6.73
2017-08-15T07:10:45.772Z,6.47
2017-08-15T07:13:13.303Z,5.93
2017-08-15T07:15:40.873Z,5.20
2017-08-15T07:18:08.398Z,7.20
2017-08-15T07:20:35.934Z,5.47
2017-08-15T07:23:03.500Z,4.73
2017-08-15T07:25:31.047Z,5.93
2017-08-15T07:27:58.603Z,4.30
2017-08-15T07:30:26.122Z,6.50
2017-08-15T07:32:53.668Z,7.87
2017-08-15T07:35:21.221Z,6.83
2017-08-15T07:37:49.554Z,8.50
2017-08-15T07:40:17.079Z,6.93
2017-08-15T07:42:44.630Z,8.10
2017-08-15T07:45:12.162Z,9.50
2017-08-15T07:47:39.724Z,17.97
2017-08-15T07:50:07.259Z,10.10
2017-08-15T07:52:34.814Z,7.90
2017-08-15T07:55:02.345Z,11.30
2017-08-15T07:57:29.911Z,6.90
2017-08-15T07:59:57.437Z,4.67
2017-08-15T08:02:25.757Z,7.57
2017-08-15T08:04:53.280Z,6.10
2017-08-15T08:07:21.595Z,5.90
2017-08-15T08:09:49.130Z,5.63
2017-08-15T08:12:16.693Z,8.43
2017-08-15T08:14:44.217Z,5.83
2017-08-15T08:17:11.733Z,9.63
2017-08-15T08:19:39.278Z,8.73
2017-08-15T08:22:06.800Z,6.50
2017-08-15T08:24:35.118Z,7.77
2017-08-15T08:27:02.643Z,7.17
2017-08-15T08:29:30.963Z,7.10
2017-08-15T08:31:58.486Z,5.83
2017-08-15T08:34:26.808Z,7.20
2017-08-15T08:36:54.338Z,8.00
2017-08-15T08:39:21.889Z,6.47
2017-08-15T08:41:49.414Z,4.30
2017-08-15T08:44:16.962Z,7.50
2017-08-15T08:46:44.496Z,5.47
2017-08-15T08:49:12.034Z,6.23
2017-08-15T08:51:39.562Z,6.83
2017-08-15T08:54:07.114Z,8.90
2017-08-15T08:56:34.647Z,6.97
2017-08-15T08:59:02.202Z,5.20
2017-08-15T09:01:29.739Z,6.20
2017-08-15T09:03:57.294Z,4.67
2017-08-15T09:06:24.818Z,4.30
2017-08-15T09:08:52.342Z,8.43
2017-08-15T09:11:19.887Z,4.90
2017-08-15T09:13:47.411Z,5.20
2017-08-15T09:16:15.719Z,7.77
2017-08-15T09:18:43.259Z,5.20
2017-08-15T09:21:10.802Z,5.53
2017-08-15T09:23:39.103Z,5.73
2017-08-15T09:26:06.650Z,5.17
2017-08-15T09:28:34.938Z,4.83
2017-08-15T09:31:02.532Z,4.07
2017-08-15T09:33:30.054Z,7.80
2017-08-15T09:35:57.603Z,7.93
2017-08-15T09:38:25.912Z,6.70
2017-08-15T09:40:53.539Z,9.03
2017-08-15T09:43:21.847Z,4.90
2017-08-15T09:45:49.407Z,8.60
2017-08-15T09:48:16.941Z,8.47
2017-08-15T09:50:45.255Z,4.83
2017-08-15T09:53:12.788Z,11.13
2017-08-15T09:55:40.336Z,5.40
2017-08-15T09:58:14.234Z,5.60
2017-08-15T10:00:42.554Z,6.50
2017-08-15T10:03:10.091Z,5.10
2017-08-15T10:05:37.631Z,5.03
2017-08-15T10:08:05.958Z,5.07
2017-08-15T10:10:33.477Z,7.27
2017-08-15T10:13:01.796Z,7.03
2017-08-15T10:15:29.334Z,4.47
2017-08-15T10:17:56.892Z,4.93
2017-08-15T10:20:24.415Z,4.53
2017-08-15T10:22:51.965Z,7.67
2017-08-15T10:25:19.495Z,8.43
2017-08-15T10:27:47.062Z,3.73
2017-08-15T10:30:14.587Z,6.40
2017-08-15T10:32:42.150Z,7.67
2017-08-15T10:35:09.680Z,7.07
2017-08-15T10:37:37.249Z,8.70
2017-08-15T10:40:05.546Z,10.00
2017-08-15T10:42:33.090Z,7.37
2017-08-15T10:45:01.376Z,6.60
2017-08-15T10:47:28.921Z,11.30
2017-08-15T10:49:57.213Z,9.57
2017-08-15T10:52:24.767Z,11.53
2017-08-15T10:54:52.299Z,10.40
2017-08-15T10:57:19.862Z,9.90
2017-08-15T10:59:47.390Z,15.70
2017-08-15T11:02:14.923Z,12.33
2017-08-15T11:04:42.475Z,17.10
2017-08-15T11:07:09.997Z,14.90
2017-08-15T11:09:37.558Z,11.83
2017-08-15T11:12:05.088Z,10.40
2017-08-15T11:14:32.631Z,8.03
2017-08-15T11:17:00.156Z,12.90
2017-08-15T11:19:34.127Z,13.00
2017-08-15T11:22:01.660Z,11.97
2017-08-15T11:24:29.210Z,13.40
2017-08-15T11:26:56.743Z,16.93
2017-08-15T11:29:25.084Z,8.00
2017-08-15T11:31:52.644Z,12.33
2017-08-15T11:34:20.195Z,10.53
2017-08-15T11:36:47.746Z,11.90
2017-08-15T11:39:15.302Z,11.17
2017-08-15T11:41:42.849Z,11.10
2017-08-15T11:44:10.412Z,10.23
2017-08-15T11:46:37.952Z,11.10
2017-08-15T11:49:05.506Z,12.83
2017-08-15T11:51:33.034Z,8.40
2017-08-15T11:54:00.579Z,9.80
2017-08-15T11:56:28.113Z,9.20
2017-08-15T11:58:55.690Z,11.27
2017-08-15T12:01:23.222Z,8.37
2017-08-15T12:03:50.774Z,8.53
2017-08-15T12:06:18.318Z,7.30
2017-08-15T12:08:45.863Z,10.00
2017-08-15T12:11:14.184Z,8.33
2017-08-15T12:13:41.716Z,10.13
2017-08-15T12:16:09.275Z,8.50
2017-08-15T12:18:37.562Z,9.57
2017-08-15T12:21:05.112Z,8.90
2017-08-15T12:23:32.642Z,8.40
2017-08-15T12:26:00.192Z,7.80
2017-08-15T12:28:27.715Z,9.13
2017-08-15T12:30:55.264Z,10.07
2017-08-15T12:33:22.798Z,16.23
2017-08-15T12:35:51.119Z,9.40
2017-08-15T12:38:18.642Z,10.10
2017-08-15T12:40:46.966Z,10.00
2017-08-15T12:43:14.494Z,12.53
2017-08-15T12:45:42.062Z,10.30
2017-08-15T12:48:09.597Z,9.90
2017-08-15T12:50:37.931Z,11.50
2017-08-15T12:53:05.462Z,10.67
2017-08-15T12:55:33.012Z,10.33
2017-08-15T12:58:00.566Z,11.07
2017-08-15T13:00:28.116Z,11.20
2017-08-15T13:02:56.445Z,11.80
2017-08-15T13:05:23.988Z,12.13
2017-08-15T13:07:51.547Z,9.83
2017-08-15T13:10:19.077Z,12.30
2017-08-15T13:12:46.637Z,10.43
2017-08-15T13:15:14.158Z,8.43
2017-08-15T13:17:41.702Z,9.90
2017-08-15T13:20:09.242Z,13.60
2017-08-15T13:22:36.786Z,11.50
2017-08-15T13:25:04.315Z,15.37
2017-08-15T13:27:32.634Z,9.37
2017-08-15T13:30:00.160Z,13.80
2017-08-15T13:32:28.483Z,18.37
2017-08-15T13:34:56.013Z,13.30
2017-08-15T13:37:23.571Z,15.43
2017-08-15T13:39:51.103Z,10.93
2017-08-15T13:42:18.660Z,12.53
2017-08-15T13:44:46.191Z,10.03
2017-08-15T13:47:13.746Z,12.67
2017-08-15T13:49:41.287Z,11.57
2017-08-15T13:52:08.815Z,12.93
2017-08-15T13:54:37.151Z,10.67
2017-08-15T13:57:04.692Z,10.50
2017-08-15T13:59:32.254Z,12.77
2017-08-15T14:01:59.787Z,11.80
2017-08-15T14:04:27.338Z,10.50
2017-08-15T14:06:54.871Z,10.90
2017-08-15T14:09:22.430Z,10.60
2017-08-15T14:11:49.954Z,10.17
2017-08-15T14:14:17.510Z,8.80
2017-08-15T14:16:45.150Z,12.47
2017-08-15T14:19:12.708Z,12.40
2017-08-15T14:21:40.239Z,10.03
2017-08-15T14:24:07.799Z,8.93
2017-08-15T14:26:35.328Z,11.80
2017-08-15T14:29:02.883Z,13.60
2017-08-15T14:31:30.422Z,11.00
2017-08-15T14:33:57.978Z,8.73
2017-08-15T14:36:25.507Z,9.17
2017-08-15T14:38:53.823Z,8.77
2017-08-15T14:41:21.345Z,9.80
2017-08-15T14:43:48.871Z,9.70
2017-08-15T14:46:16.422Z,7.53
2017-08-15T14:48:43.950Z,8.23
2017-08-15T14:51:11.510Z,8.03
2017-08-15T14:53:39.032Z,7.73
2017-08-15T14:56:06.575Z,8.37
2017-08-15T14:58:34.101Z,7.43
2017-08-15T15:01:01.802Z,8.40
2017-08-15T15:03:29.332Z,7.80
2017-08-15T15:05:56.883Z,8.13
2017-08-15T15:08:24.406Z,8.40
2017-08-15T15:10:52.718Z,9.43
2017-08-15T15:13:20.242Z,9.80
2017-08-15T15:15:47.791Z,9.10
2017-08-15T15:18:16.084Z,9.40
2017-08-15T15:20:43.631Z,7.00
2017-08-15T15:23:11.951Z,8.07
2017-08-15T15:25:39.520Z,9.87
2017-08-15T15:28:07.055Z,6.93
2017-08-15T15:30:34.618Z,10.20
2017-08-15T15:33:02.142Z,11.30
2017-08-15T15:35:30.477Z,6.40
2017-08-15T15:37:57.998Z,8.37
2017-08-15T15:40:25.535Z,7.37
2017-08-15T15:42:53.857Z,7.87
2017-08-15T15:45:21.386Z,9.63
2017-08-15T15:47:48.938Z,8.53
2017-08-15T15:50:17.234Z,7.80
2017-08-15T15:52:44.792Z,8.60
2017-08-15T15:55:12.322Z,6.80
2017-08-15T15:57:39.890Z,9.20
2017-08-15T16:00:08.209Z,9.30
2017-08-15T16:02:35.773Z,11.37
2017-08-15T16:05:03.298Z,9.77
2017-08-15T16:07:30.862Z,8.30
2017-08-15T16:09:59.158Z,8.07
2017-08-15T16:12:26.711Z,9.03
2017-08-15T16:14:54.240Z,7.83
2017-08-15T16:17:22.560Z,6.87
2017-08-15T16:19:50.095Z,7.57
2017-08-15T16:22:17.650Z,10.53
2017-08-15T16:24:45.943Z,7.90
2017-08-15T16:27:13.494Z,7.43
2017-08-15T16:29:41.031Z,10.37
2017-08-15T16:32:08.579Z,8.03
2017-08-15T16:34:36.103Z,7.93
2017-08-15T16:37:03.631Z,11.10
2017-08-15T16:39:31.186Z,9.33
2017-08-15T16:41:59.479Z,8.43
2017-08-15T16:44:27.030Z,7.60
2017-08-15T16:46:54.557Z,9.60
2017-08-15T16:49:22.102Z,7.63
2017-08-15T16:51:49.626Z,6.37
2017-08-15T16:54:17.173Z,7.17
2017-08-15T16:56:44.707Z,8.93
2017-08-15T16:59:13.031Z,10.20
2017-08-15T17:01:40.554Z,9.37
2017-08-15T17:04:08.870Z,9.13
2017-08-15T17:06:36.394Z,8.90
2017-08-15T17:09:04.708Z,8.60
2017-08-15T17:11:32.247Z,10.13
2017-08-15T17:13:59.790Z,9.40
2017-08-15T17:16:28.081Z,9.33
2017-08-15T17:18:55.626Z,9.40
2017-08-15T17:21:23.923Z,9.40
2017-08-15T17:23:51.479Z,7.20
2017-08-15T17:26:19.011Z,8.40
2017-08-15T17:28:46.614Z,12.10
2017-08-15T17:31:14.134Z,8.53
2017-08-15T17:33:42.435Z,10.33
2017-08-15T17:36:10.016Z,9.40
2017-08-15T17:38:37.547Z,8.50
2017-08-15T17:41:05.101Z,8.80
2017-08-15T17:43:32.643Z,8.10
2017-08-15T17:46:00.209Z,9.33
2017-08-15T17:48:28.526Z,14.70
2017-08-15T17:50:56.092Z,10.23
2017-08-15T17:53:23.642Z,9.30
2017-08-15T17:55:51.196Z,11.03
2017-08-15T17:58:18.724Z,8.60
2017-08-15T18:00:47.043Z,9.20
2017-08-15T18:03:14.579Z,8.23
2017-08-15T18:05:42.147Z,8.80
2017-08-15T18:08:09.674Z,8.87
2017-08-15T18:10:37.231Z,7.47
2017-08-15T18:13:04.761Z,10.33
2017-08-15T18:15:32.341Z,9.00
2017-08-15T18:17:59.944Z,15.53
2017-08-15T18:20:27.514Z,9.27
2017-08-15T18:22:55.038Z,9.80
2017-08-15T18:25:23.426Z,8.57
2017-08-15T18:27:51.719Z,7.80
2017-08-15T18:30:19.292Z,7.70
2017-08-15T18:32:46.818Z,12.93
2017-08-15T18:35:15.121Z,9.03
2017-08-15T18:37:42.683Z,9.13
2017-08-15T18:40:10.240Z,9.33
2017-08-15T18:42:37.801Z,8.03
2017-08-15T18:45:05.325Z,6.27
2017-08-15T18:47:33.641Z,8.63
2017-08-15T18:50:01.171Z,7.73
2017-08-15T18:52:29.496Z,12.07
2017-08-15T18:54:57.028Z,8.63
2017-08-15T18:57:24.615Z,7.20
2017-08-15T18:59:52.161Z,8.63
2017-08-15T19:02:19.711Z,8.30
2017-08-15T19:04:47.243Z,8.33
2017-08-15T19:07:15.662Z,9.40
2017-08-15T19:09:43.837Z,6.53
2017-08-15T19:12:11.508Z,11.07
2017-08-15T19:14:39.046Z,10.37
2017-08-15T19:17:06.591Z,6.93
2017-08-15T19:19:34.115Z,5.90
2017-08-15T19:22:01.662Z,7.80
2017-08-15T19:24:29.186Z,6.70
2017-08-15T19:26:56.735Z,7.50
2017-08-15T19:29:24.262Z,7.40
2017-08-15T19:31:51.782Z,5.77
2017-08-15T19:34:19.411Z,10.10
2017-08-15T19:36:46.955Z,6.63
2017-08-15T19:39:15.271Z,7.50
2017-08-15T19:41:42.795Z,7.33
2017-08-15T19:44:11.291Z,7.13
2017-08-15T19:46:38.827Z,9.17
2017-08-15T19:49:06.379Z,6.00
2017-08-15T19:51:33.906Z,5.37
2017-08-15T19:54:01.455Z,7.03
2017-08-15T19:56:28.986Z,6.37
2017-08-15T19:58:57.345Z,7.73
2017-08-15T20:01:25.639Z,7.50
2017-08-15T20:03:53.951Z,5.80
2017-08-15T20:06:21.483Z,7.20
2017-08-15T20:08:49.039Z,9.10
2017-08-15T20:11:17.331Z,11.03
2017-08-15T20:13:47.891Z,6.87
2017-08-15T20:16:15.414Z,7.77
2017-08-15T20:18:43.015Z,6.10
2017-08-15T20:21:10.544Z,9.47
2017-08-15T20:23:38.081Z,8.33
2017-08-15T20:26:05.642Z,10.87
2017-08-15T20:28:33.930Z,7.90
2017-08-15T20:31:01.486Z,7.07
2017-08-15T20:33:29.011Z,8.30
2017-08-15T20:35:56.563Z,9.93
2017-08-15T20:38:24.091Z,8.50
2017-08-15T20:40:51.638Z,9.93
2017-08-15T20:43:19.175Z,10.80
2017-08-15T20:45:47.722Z,7.40
2017-08-15T20:48:15.255Z,7.30
2017-08-15T20:50:42.887Z,7.63
2017-08-15T20:53:10.410Z,7.23
2017-08-15T20:55:37.949Z,8.83
2017-08-15T20:58:05.470Z,7.40
2017-08-15T21:00:33.021Z,10.67
2017-08-15T21:03:00.543Z,7.50
2017-08-15T21:05:28.093Z,9.60
2017-08-15T21:07:55.674Z,10.83
2017-08-15T21:10:23.231Z,10.53
2017-08-15T21:12:50.754Z,10.40
2017-08-15T21:15:18.323Z,7.73
2017-08-15T21:17:45.855Z,8.50
2017-08-15T21:20:13.378Z,12.73
2017-08-15T21:22:40.930Z,8.10
2017-08-15T21:25:08.451Z,9.00
2017-08-15T21:27:35.994Z,7.53
2017-08-15T21:30:03.519Z,8.93
2017-08-15T21:32:31.830Z,6.67
2017-08-15T21:34:59.390Z,8.30
2017-08-15T21:37:26.936Z,7.70
2017-08-15T21:39:54.463Z,6.57
2017-08-15T21:42:22.017Z,9.60
2017-08-15T21:44:49.546Z,8.77
2017-08-15T21:47:17.103Z,13.10
2017-08-15T21:49:44.630Z,10.70
2017-08-15T21:52:12.190Z,10.20
2017-08-15T21:54:39.721Z,11.03
2017-08-15T21:57:07.275Z,9.67
2017-08-15T21:59:34.798Z,11.10
2017-08-15T22:02:07.992Z,9.57
2017-08-15T22:04:35.514Z,9.63
2017-08-15T22:07:03.630Z,12.67
2017-08-15T22:09:31.158Z,10.23
2017-08-15T22:11:58.719Z,13.70
2017-08-15T22:14:26.248Z,11.90
2017-08-15T22:16:54.555Z,10.20
2017-08-15T22:19:22.109Z,10.97
2017-08-15T22:21:49.651Z,11.00
2017-08-15T22:24:17.211Z,11.93
2017-08-15T22:26:45.507Z,11.47
2017-08-15T22:29:13.055Z,13.87
2017-08-15T22:51:25.230Z,8.93
2017-08-15T22:53:52.788Z,13.23
2017-08-15T22:56:20.553Z,12.50
2017-08-15T22:58:48.111Z,11.20
2017-08-15T23:01:15.635Z,13.40
2017-08-15T23:03:43.950Z,13.40
2017-08-15T23:06:11.481Z,11.00
2017-08-15T23:08:39.047Z,11.77
2017-08-15T23:11:06.576Z,8.03
2017-08-15T23:13:34.866Z,10.87
2017-08-15T23:16:03.181Z,10.13
2017-08-15T23:18:30.733Z,9.73
2017-08-15T23:20:58.302Z,9.73
2017-08-15T23:23:25.823Z,9.80
2017-08-15T23:25:54.138Z,8.87
2017-08-15T23:28:21.671Z,10.60
2017-08-15T23:30:49.258Z,9.83
2017-08-15T23:33:16.791Z,8.80
2017-08-15T23:35:44.343Z,10.10
2017-08-15T23:38:12.630Z,7.20
2017-08-15T23:40:40.199Z,10.23
2017-08-15T23:43:07.727Z,11.80
2017-08-15T23:45:36.055Z,10.63
2017-08-15T23:48:03.854Z,13.67
2017-08-15T23:50:31.450Z,13.33
2017-08-15T23:52:58.979Z,8.40
2017-08-15T23:55:26.526Z,11.20
2017-08-15T23:57:54.141Z,9.90
